createdAt,value
2022-12-20T00:01:26.534Z,15.57
2022-12-20T00:03:56.295Z,16.20
2022-12-20T00:06:24.818Z,16.08
2022-12-20T00:09:00.744Z,15.98
2022-12-20T00:11:30.164Z,16.17
2022-12-20T00:13:58.421Z,15.98
2022-12-20T00:16:28.744Z,15.18
2022-12-20T00:18:59.796Z,15.57
2022-12-20T00:21:28.129Z,15.70
2022-12-20T00:23:56.004Z,16.17
2022-12-20T00:26:27.983Z,15.68
2022-12-20T00:28:55.665Z,15.32
2022-12-20T00:31:26.526Z,16.00
2022-12-20T00:33:55.718Z,14.25
2022-12-20T00:36:25.105Z,16.00
2022-12-20T00:38:55.863Z,15.25
2022-12-20T00:41:26.606Z,14.70
2022-12-20T00:43:54.090Z,15.07
2022-12-20T00:46:24.751Z,14.55
2022-12-20T00:48:54.514Z,15.90
2022-12-20T00:51:25.880Z,16.38
2022-12-20T00:53:54.126Z,15.25
2022-12-20T00:56:21.570Z,15.48
2022-12-20T00:58:49.051Z,13.75
2022-12-20T01:01:27.538Z,14.70
2022-12-20T01:03:55.137Z,16.48
2022-12-20T01:06:23.883Z,14.20
2022-12-20T01:08:51.365Z,15.05
2022-12-20T01:11:25.724Z,14.02
2022-12-20T01:13:56.323Z,16.45
2022-12-20T01:16:31.477Z,14.88
2022-12-20T01:18:58.457Z,15.18
2022-12-20T01:21:27.504Z,15.30
2022-12-20T01:23:55.862Z,14.98
2022-12-20T01:26:26.956Z,15.27
2022-12-20T01:28:57.484Z,15.40
2022-12-20T01:31:25.027Z,14.98
2022-12-20T01:33:52.849Z,15.10
2022-12-20T01:36:26.689Z,15.50
2022-12-20T01:39:03.956Z,14.13
2022-12-20T01:41:33.016Z,14.88
2022-12-20T01:44:27.475Z,13.80
2022-12-20T01:46:55.360Z,13.20
2022-12-20T01:49:32.785Z,13.82
2022-12-20T01:52:17.868Z,15.05
2022-12-20T01:54:58.526Z,14.95
2022-12-20T01:57:36.004Z,14.57
2022-12-20T02:00:05.857Z,13.50
2022-12-20T02:02:42.220Z,15.30
2022-12-20T02:05:10.257Z,14.35
2022-12-20T02:07:39.066Z,13.90
2022-12-20T02:10:07.979Z,13.68
2022-12-20T02:12:45.289Z,13.80
2022-12-20T02:15:32.837Z,13.45
2022-12-20T02:18:23.064Z,14.70
2022-12-20T02:21:16.415Z,14.25
2022-12-20T02:24:16.473Z,13.90
2022-12-20T02:27:21.586Z,13.43
2022-12-20T02:30:18.728Z,13.07
2022-12-20T02:33:04.689Z,13.70
2022-12-20T02:35:35.797Z,12.60
2022-12-20T02:38:34.449Z,13.85
2022-12-20T02:41:12.319Z,13.40
2022-12-20T02:44:01.879Z,14.10
2022-12-20T02:46:29.791Z,13.68
2022-12-20T02:49:01.953Z,13.20
2022-12-20T02:51:32.860Z,15.57
2022-12-20T02:54:00.624Z,12.98
2022-12-20T02:56:38.197Z,13.52
2022-12-20T02:59:15.300Z,14.85
2022-12-20T03:01:50.543Z,12.93
2022-12-20T03:04:20.615Z,12.50
2022-12-20T03:07:05.797Z,13.18
2022-12-20T03:09:38.113Z,13.30
2022-12-20T03:12:07.987Z,12.77
2022-12-20T03:14:38.107Z,13.45
2022-12-20T03:17:08.684Z,13.07
2022-12-20T03:19:38.796Z,13.23
2022-12-20T03:22:06.595Z,13.00
2022-12-20T03:24:34.056Z,13.50
2022-12-20T03:27:01.943Z,12.85
2022-12-20T03:29:29.205Z,14.23
2022-12-20T03:31:56.264Z,12.32
2022-12-20T03:34:23.713Z,12.18
2022-12-20T03:36:50.743Z,12.65
2022-12-20T03:39:17.937Z,13.20
2022-12-20T03:41:45.032Z,12.20
2022-12-20T03:44:16.402Z,13.02
2022-12-20T03:46:43.613Z,13.23
2022-12-20T03:49:10.919Z,12.93
2022-12-20T03:51:44.957Z,11.60
2022-12-20T03:54:12.363Z,12.95
2022-12-20T03:56:55.855Z,13.02
2022-12-20T03:59:22.954Z,13.27
2022-12-20T04:01:50.217Z,12.07
2022-12-20T04:04:17.367Z,12.32
2022-12-20T04:06:44.948Z,11.80
2022-12-20T04:09:12.195Z,12.15
2022-12-20T04:11:45.477Z,12.02
2022-12-20T04:14:15.096Z,12.05
2022-12-20T04:16:43.635Z,11.18
2022-12-20T04:19:11.988Z,12.13
2022-12-20T04:21:45.568Z,13.02
2022-12-20T04:24:13.665Z,12.82
2022-12-20T04:26:56.029Z,12.30
2022-12-20T04:29:23.425Z,11.77
2022-12-20T04:31:51.010Z,11.95
2022-12-20T04:34:19.176Z,11.90
2022-12-20T04:36:46.462Z,12.32
2022-12-20T04:39:20.069Z,12.52
2022-12-20T04:42:05.458Z,12.45
2022-12-20T04:44:33.438Z,11.32
2022-12-20T04:47:00.641Z,12.00
2022-12-20T04:49:28.951Z,11.48
2022-12-20T04:52:16.018Z,11.52
2022-12-20T04:54:43.295Z,11.43
2022-12-20T04:57:16.581Z,11.93
2022-12-20T04:59:44.176Z,12.05
2022-12-20T05:02:13.532Z,10.75
2022-12-20T05:04:51.579Z,11.75
2022-12-20T05:07:18.627Z,12.15
2022-12-20T05:09:51.282Z,11.73
2022-12-20T05:12:18.723Z,11.45
2022-12-20T05:14:45.756Z,12.30
2022-12-20T05:17:15.799Z,11.25
2022-12-20T05:19:42.801Z,12.30
2022-12-20T05:22:43.931Z,12.68
2022-12-20T05:25:32.246Z,10.88
2022-12-20T05:28:04.052Z,10.63
2022-12-20T05:30:34.712Z,11.82
2022-12-20T05:33:01.952Z,11.20
2022-12-20T05:35:30.291Z,12.65
2022-12-20T05:38:04.080Z,12.88
2022-12-20T05:40:32.001Z,12.13
2022-12-20T05:42:59.789Z,12.68
2022-12-20T05:45:35.897Z,13.05
2022-12-20T05:48:08.647Z,13.15
2022-12-20T05:50:39.419Z,12.15
2022-12-20T05:53:24.126Z,11.32
2022-12-20T05:55:54.535Z,12.13
2022-12-20T05:58:26.259Z,12.10
2022-12-20T06:01:04.849Z,12.48
2022-12-20T06:03:38.338Z,11.05
2022-12-20T06:06:14.651Z,12.07
2022-12-20T06:08:44.914Z,11.80
2022-12-20T06:11:18.015Z,12.52
2022-12-20T06:13:50.432Z,12.77
2022-12-20T06:16:20.799Z,11.65
2022-12-20T06:18:47.968Z,11.52
2022-12-20T06:21:16.501Z,11.70
2022-12-20T06:23:44.718Z,11.50
2022-12-20T06:26:13.733Z,12.52
2022-12-20T06:28:54.598Z,12.73
2022-12-20T06:31:25.546Z,11.43
2022-12-20T06:33:54.852Z,12.35
2022-12-20T06:36:23.959Z,12.40
2022-12-20T06:38:51.940Z,11.63
2022-12-20T06:41:19.441Z,11.43
2022-12-20T06:43:47.131Z,11.52
2022-12-20T06:46:14.536Z,11.63
2022-12-20T06:48:41.601Z,12.98
2022-12-20T06:51:11.232Z,12.52
2022-12-20T06:53:38.604Z,11.57
2022-12-20T06:56:06.487Z,10.77
2022-12-20T06:58:33.383Z,11.93
2022-12-20T07:01:00.868Z,11.45
2022-12-20T07:03:28.563Z,11.75
2022-12-20T07:05:56.177Z,12.15
2022-12-20T07:08:24.563Z,12.15
2022-12-20T07:10:52.767Z,11.82
2022-12-20T07:13:20.338Z,11.38
2022-12-20T07:15:47.526Z,11.75
2022-12-20T07:18:14.471Z,11.63
2022-12-20T07:20:41.887Z,11.68
2022-12-20T07:23:08.812Z,12.35
2022-12-20T07:25:36.137Z,12.70
2022-12-20T07:28:04.183Z,12.05
2022-12-20T07:30:31.244Z,11.90
2022-12-20T07:32:58.947Z,12.68
2022-12-20T07:35:26.656Z,12.70
2022-12-20T07:37:53.821Z,12.10
2022-12-20T07:40:20.790Z,13.32
2022-12-20T07:42:49.036Z,13.77
2022-12-20T07:45:16.420Z,12.95
2022-12-20T07:47:43.993Z,13.48
2022-12-20T07:50:12.047Z,11.40
2022-12-20T07:52:41.435Z,13.25
2022-12-20T07:55:10.555Z,12.43
2022-12-20T07:57:58.904Z,13.00
2022-12-20T08:00:25.929Z,14.07
2022-12-20T08:03:32.083Z,14.18
2022-12-20T08:06:03.985Z,14.05
2022-12-20T08:08:33.979Z,12.00
2022-12-20T08:11:04.183Z,13.63
2022-12-20T08:13:32.962Z,13.63
2022-12-20T08:16:00.874Z,12.98
2022-12-20T08:18:27.842Z,12.50
2022-12-20T08:20:54.936Z,13.88
2022-12-20T08:23:21.913Z,13.35
2022-12-20T08:25:49.135Z,13.50
2022-12-20T08:28:16.460Z,14.15
2022-12-20T08:30:43.584Z,12.20
2022-12-20T08:33:11.618Z,12.73
2022-12-20T08:35:38.567Z,14.02
2022-12-20T08:38:05.687Z,12.85
2022-12-20T08:40:32.715Z,13.23
2022-12-20T08:43:03.773Z,14.18
2022-12-20T08:45:35.255Z,12.97
2022-12-20T08:48:02.306Z,12.88
2022-12-20T08:50:29.563Z,12.13
2022-12-20T08:52:56.496Z,14.23
2022-12-20T08:55:29.142Z,13.50
2022-12-20T08:57:56.934Z,12.93
2022-12-20T09:00:24.091Z,13.38
2022-12-20T09:02:52.042Z,13.18
2022-12-20T09:05:19.420Z,13.20
2022-12-20T09:07:46.556Z,14.57
2022-12-20T09:10:14.938Z,13.65
2022-12-20T09:12:41.950Z,13.57
2022-12-20T09:15:10.156Z,12.82
2022-12-20T09:17:37.246Z,12.52
2022-12-20T09:20:05.344Z,13.68
2022-12-20T09:22:32.224Z,14.30
2022-12-20T09:24:59.910Z,13.75
2022-12-20T09:27:26.791Z,13.60
2022-12-20T09:29:53.786Z,13.02
2022-12-20T09:32:20.793Z,12.43
2022-12-20T09:34:48.351Z,12.15
2022-12-20T09:37:15.325Z,13.88
2022-12-20T09:39:42.345Z,13.45
2022-12-20T09:42:10.040Z,13.50
2022-12-20T09:44:41.360Z,12.77
2022-12-20T09:47:17.165Z,13.05
2022-12-20T09:49:50.015Z,13.38
2022-12-20T09:52:41.675Z,12.70
2022-12-20T09:55:19.893Z,13.05
2022-12-20T09:57:56.055Z,13.70
2022-12-20T10:00:23.631Z,13.20
2022-12-20T10:05:56.611Z,13.05
2022-12-20T10:08:59.804Z,13.18
2022-12-20T10:12:12.920Z,12.23
2022-12-20T10:14:57.966Z,14.27
2022-12-20T10:17:50.022Z,13.30
2022-12-20T10:20:32.819Z,12.93
2022-12-20T10:23:15.309Z,12.70
2022-12-20T10:25:43.470Z,12.57
2022-12-20T10:28:16.800Z,11.65
2022-12-20T10:30:44.157Z,11.95
2022-12-20T10:33:22.454Z,12.68
2022-12-20T10:35:50.702Z,10.88
2022-12-20T10:38:18.445Z,11.10
2022-12-20T10:41:19.984Z,10.52
2022-12-20T10:43:50.101Z,10.65
2022-12-20T10:46:17.464Z,10.52
2022-12-20T10:48:48.121Z,10.00
2022-12-20T10:51:22.399Z,11.52
2022-12-20T10:54:04.166Z,11.02
2022-12-20T10:56:38.761Z,9.77
2022-12-20T10:59:17.963Z,11.32
2022-12-20T11:01:47.593Z,11.48
2022-12-20T11:04:39.478Z,10.15
2022-12-20T11:07:26.946Z,10.20
2022-12-20T11:10:08.918Z,9.85
2022-12-20T11:12:36.117Z,9.70
2022-12-20T11:15:20.543Z,10.02
2022-12-20T11:18:32.020Z,8.60
2022-12-20T11:21:28.961Z,9.05
2022-12-20T11:24:49.935Z,9.02
2022-12-20T11:27:38.214Z,9.15
2022-12-20T11:30:14.472Z,9.45
2022-12-20T11:33:05.070Z,8.95
2022-12-20T11:35:53.496Z,9.15
2022-12-20T11:38:48.516Z,9.65
2022-12-20T11:41:57.998Z,9.38
2022-12-20T11:45:14.723Z,8.60
2022-12-20T11:47:44.427Z,9.70
2022-12-20T11:50:31.618Z,9.20
2022-12-20T11:53:41.347Z,8.65
2022-12-20T11:56:22.156Z,8.85
2022-12-20T11:59:15.072Z,8.27
2022-12-20T12:02:09.427Z,9.02
2022-12-20T12:04:57.427Z,8.75
2022-12-20T12:07:30.881Z,8.32
2022-12-20T12:10:14.107Z,10.32
2022-12-20T12:12:48.748Z,8.75
2022-12-20T12:15:16.892Z,9.50
2022-12-20T12:18:03.891Z,9.40
2022-12-20T12:21:08.310Z,8.77
2022-12-20T12:24:02.219Z,9.45
2022-12-20T12:26:39.447Z,8.77
2022-12-20T12:29:17.889Z,9.80
2022-12-20T12:31:58.342Z,9.18
2022-12-20T12:35:03.714Z,10.25
2022-12-20T12:38:02.682Z,9.48
2022-12-20T12:40:38.115Z,9.25
2022-12-20T12:43:36.490Z,9.32
2022-12-20T12:46:30.573Z,9.75
2022-12-20T12:48:59.061Z,8.80
2022-12-20T12:51:33.446Z,9.27
2022-12-20T12:54:29.389Z,8.45
2022-12-20T12:57:11.970Z,9.18
2022-12-20T12:59:38.874Z,8.52
2022-12-20T13:02:15.262Z,8.15
2022-12-20T13:05:25.666Z,9.93
2022-12-20T13:07:53.534Z,8.45
2022-12-20T13:10:40.629Z,9.07
2022-12-20T13:13:22.858Z,8.60
2022-12-20T13:15:52.612Z,8.85
2022-12-20T13:18:25.505Z,9.30
2022-12-20T13:21:29.537Z,9.50
2022-12-20T13:24:37.959Z,9.40
2022-12-20T13:27:24.104Z,10.20
2022-12-20T13:30:12.528Z,9.73
2022-12-20T13:32:48.816Z,10.15
2022-12-20T13:38:05.740Z,9.20
2022-12-20T13:40:47.327Z,10.57
2022-12-20T13:43:30.363Z,10.25
2022-12-20T13:46:14.889Z,10.23
2022-12-20T13:48:53.208Z,9.55
2022-12-20T13:51:27.785Z,9.35
2022-12-20T13:54:01.288Z,11.23
2022-12-20T13:56:28.577Z,11.40
2022-12-20T13:58:59.063Z,10.07
2022-12-20T14:01:27.095Z,9.05
2022-12-20T14:03:54.479Z,9.93
2022-12-20T14:06:27.100Z,10.32
2022-12-20T14:08:54.427Z,10.65
2022-12-20T14:11:28.236Z,10.95
2022-12-20T14:14:01.207Z,10.15
2022-12-20T14:16:32.678Z,10.02
2022-12-20T14:19:13.886Z,11.23
2022-12-20T14:21:45.071Z,10.18
2022-12-20T14:24:20.077Z,10.45
2022-12-20T14:26:51.904Z,10.23
2022-12-20T14:29:27.357Z,10.35
2022-12-20T14:31:54.312Z,10.57
2022-12-20T14:34:39.848Z,11.65
2022-12-20T14:37:27.184Z,10.32
2022-12-20T14:39:58.190Z,9.90
2022-12-20T14:42:34.529Z,10.57
2022-12-20T14:45:10.831Z,10.75
2022-12-20T14:47:42.722Z,11.05
2022-12-20T14:50:24.871Z,11.02
2022-12-20T14:52:51.920Z,11.63
2022-12-20T14:55:28.964Z,11.48
2022-12-20T14:57:57.878Z,11.07
2022-12-20T15:00:29.848Z,11.02
2022-12-20T15:02:57.268Z,11.13
2022-12-20T15:05:36.725Z,11.35
2022-12-20T15:08:34.639Z,11.85
2022-12-20T15:13:54.813Z,11.57
2022-12-20T15:16:30.244Z,11.05
2022-12-20T15:19:02.120Z,11.70
2022-12-20T15:21:37.255Z,11.65
2022-12-20T15:24:10.910Z,11.13
2022-12-20T15:26:38.535Z,12.38
2022-12-20T15:29:06.982Z,13.55
2022-12-20T15:31:36.456Z,11.85
2022-12-20T15:34:32.669Z,11.93
2022-12-20T15:37:00.377Z,13.65
2022-12-20T15:39:28.603Z,12.90
2022-12-20T15:41:58.922Z,13.77
2022-12-20T15:44:29.541Z,13.85
2022-12-20T15:46:57.308Z,12.10
2022-12-20T15:49:33.416Z,12.48
2022-12-20T15:52:00.613Z,13.07
2022-12-20T15:54:37.074Z,13.35
2022-12-20T15:57:10.315Z,16.33
2022-12-20T16:02:27.411Z,15.38
2022-12-20T16:04:56.628Z,13.90
2022-12-20T16:07:24.047Z,13.73
2022-12-20T16:09:51.391Z,13.45
2022-12-20T16:12:29.540Z,12.80
2022-12-20T16:14:57.285Z,13.40
2022-12-20T16:17:24.788Z,14.90
2022-12-20T16:19:51.737Z,14.75
2022-12-20T16:22:22.462Z,15.05
2022-12-20T16:24:50.186Z,14.38
2022-12-20T16:27:17.487Z,14.77
2022-12-20T16:29:45.377Z,14.85
2022-12-20T16:32:18.575Z,14.60
2022-12-20T16:34:46.235Z,15.38
2022-12-20T16:37:13.896Z,16.30
2022-12-20T16:39:42.651Z,15.38
2022-12-20T16:42:21.988Z,15.18
2022-12-20T16:44:53.551Z,15.30
2022-12-20T16:47:20.937Z,14.95
2022-12-20T16:49:52.825Z,15.30
2022-12-20T16:52:22.539Z,15.52
2022-12-20T16:54:50.537Z,15.98
2022-12-20T16:57:17.544Z,15.82
2022-12-20T16:59:44.819Z,15.82
2022-12-20T17:02:28.886Z,14.88
2022-12-20T17:04:56.491Z,14.98
2022-12-20T17:07:23.754Z,15.45
2022-12-20T17:09:51.574Z,14.98
2022-12-20T17:12:21.955Z,16.15
2022-12-20T17:14:49.707Z,16.65
2022-12-20T17:17:18.191Z,15.98
2022-12-20T17:19:45.656Z,13.98
2022-12-20T17:25:02.861Z,15.65
2022-12-20T17:27:29.985Z,15.95
2022-12-20T17:29:56.998Z,16.35
2022-12-20T17:32:25.592Z,16.35
2022-12-20T17:34:53.375Z,15.85
2022-12-20T17:37:21.560Z,14.98
2022-12-20T17:39:49.565Z,16.95
2022-12-20T17:42:16.936Z,16.13
2022-12-20T17:44:46.908Z,15.80
2022-12-20T17:47:14.173Z,16.92
2022-12-20T17:49:41.137Z,15.90
2022-12-20T17:52:16.179Z,17.48
2022-12-20T17:54:43.439Z,16.13
2022-12-20T17:57:15.508Z,15.88
2022-12-20T17:59:43.737Z,15.75
2022-12-20T18:02:23.374Z,14.60
2022-12-20T18:04:51.367Z,16.80
2022-12-20T18:07:18.546Z,16.50
2022-12-20T18:09:48.209Z,15.25
2022-12-20T18:12:15.192Z,16.35
2022-12-20T18:14:42.565Z,15.57
2022-12-20T18:17:09.558Z,16.05
2022-12-20T18:19:36.896Z,15.23
2022-12-20T18:22:05.143Z,14.70
2022-12-20T18:24:32.204Z,16.20
2022-12-20T18:26:59.478Z,15.82
2022-12-20T18:29:26.319Z,15.57
2022-12-20T18:31:53.337Z,15.10
2022-12-20T18:34:20.520Z,17.17
2022-12-20T18:36:47.391Z,16.50
2022-12-20T18:39:14.889Z,17.20
2022-12-20T18:41:43.787Z,16.35
2022-12-20T18:44:12.085Z,17.02
2022-12-20T18:46:39.447Z,16.92
2022-12-20T18:49:06.567Z,16.42
2022-12-20T18:51:37.002Z,15.65
2022-12-20T18:54:07.126Z,16.60
2022-12-20T18:56:37.953Z,14.68
2022-12-20T18:59:11.342Z,16.50
2022-12-20T19:01:39.929Z,15.50
2022-12-20T19:04:08.051Z,15.00
2022-12-20T19:06:36.943Z,14.90
2022-12-20T19:09:08.162Z,16.00
2022-12-20T19:11:35.531Z,15.15
2022-12-20T19:14:03.753Z,15.23
2022-12-20T19:16:32.912Z,14.25
2022-12-20T19:19:02.500Z,13.95
2022-12-20T19:21:33.233Z,14.10
2022-12-20T19:24:05.210Z,14.82
2022-12-20T19:26:33.014Z,13.63
2022-12-20T19:29:00.376Z,14.13
2022-12-20T19:31:33.391Z,13.32
2022-12-20T19:34:06.049Z,13.93
2022-12-20T19:36:42.021Z,13.02
2022-12-20T19:39:16.020Z,14.15
2022-12-20T19:41:43.413Z,12.95
2022-12-20T19:44:10.672Z,13.18
2022-12-20T19:46:38.590Z,14.00
2022-12-20T19:49:05.927Z,13.10
2022-12-20T19:51:33.773Z,14.55
2022-12-20T19:54:01.023Z,13.98
2022-12-20T19:56:33.646Z,14.48
2022-12-20T19:59:02.343Z,13.57
2022-12-20T20:01:29.718Z,13.45
2022-12-20T20:04:00.107Z,15.45
2022-12-20T20:06:28.050Z,13.45
2022-12-20T20:08:59.607Z,13.90
2022-12-20T20:11:27.798Z,13.65
2022-12-20T20:13:55.723Z,13.32
2022-12-20T20:16:23.298Z,14.10
2022-12-20T20:18:51.099Z,13.35
2022-12-20T20:21:23.159Z,14.65
2022-12-20T20:23:52.626Z,13.05
2022-12-20T20:26:26.588Z,13.00
2022-12-20T20:28:54.092Z,14.65
2022-12-20T20:31:22.384Z,14.43
2022-12-20T20:33:50.561Z,13.38
2022-12-20T20:36:21.622Z,14.27
2022-12-20T20:38:50.313Z,14.10
2022-12-20T20:41:18.112Z,13.90
2022-12-20T20:43:45.237Z,12.77
2022-12-20T20:46:15.273Z,14.75
2022-12-20T20:48:43.125Z,13.43
2022-12-20T20:51:11.173Z,12.30
2022-12-20T20:53:38.314Z,13.50
2022-12-20T20:56:06.977Z,12.77
2022-12-20T20:58:35.379Z,13.23
2022-12-20T21:01:04.691Z,12.98
2022-12-20T21:03:32.547Z,13.68
2022-12-20T21:08:47.141Z,13.20
2022-12-20T21:11:14.374Z,14.00
2022-12-20T21:13:41.614Z,13.68
2022-12-20T21:16:20.261Z,13.13
2022-12-20T21:18:56.914Z,13.52
2022-12-20T21:21:25.595Z,14.13
2022-12-20T21:23:53.966Z,13.63
2022-12-20T21:26:22.894Z,13.65
2022-12-20T21:28:49.834Z,13.82
2022-12-20T21:31:19.514Z,13.63
2022-12-20T21:33:47.269Z,13.15
2022-12-20T21:36:17.734Z,13.65
2022-12-20T21:38:50.510Z,14.13
2022-12-20T21:41:20.152Z,14.07
2022-12-20T21:43:47.191Z,13.55
2022-12-20T21:46:14.709Z,13.27
2022-12-20T21:48:43.817Z,14.13
2022-12-20T21:51:14.637Z,15.10
2022-12-20T21:53:54.334Z,15.05
2022-12-20T21:56:23.527Z,13.93
2022-12-20T21:58:51.601Z,14.07
2022-12-20T22:01:24.462Z,14.15
2022-12-20T22:04:00.206Z,13.60
2022-12-20T22:06:28.145Z,14.15
2022-12-20T22:09:01.526Z,13.57
2022-12-20T22:11:28.694Z,14.10
2022-12-20T22:13:56.564Z,13.75
2022-12-20T22:16:26.923Z,12.57
2022-12-20T22:18:56.284Z,14.20
2022-12-20T22:21:32.219Z,12.65
2022-12-20T22:24:01.300Z,13.88
2022-12-20T22:26:31.412Z,13.43
2022-12-20T22:29:02.372Z,13.15
2022-12-20T22:31:30.497Z,12.02
2022-12-20T22:33:58.837Z,12.57
2022-12-20T22:36:28.654Z,13.05
2022-12-20T22:38:57.210Z,13.23
2022-12-20T22:41:35.043Z,14.68
2022-12-20T22:44:03.106Z,13.75
2022-12-20T22:46:31.058Z,13.75
2022-12-20T22:48:59.233Z,13.70
2022-12-20T22:51:27.860Z,13.38
2022-12-20T22:53:58.125Z,13.32
2022-12-20T22:56:25.641Z,12.95
2022-12-20T22:58:53.304Z,13.25
2022-12-20T23:01:21.700Z,13.35
2022-12-20T23:03:49.086Z,12.38
2022-12-20T23:06:19.425Z,13.52
2022-12-20T23:08:47.417Z,12.90
2022-12-20T23:11:43.474Z,14.35
2022-12-20T23:14:36.126Z,12.48
2022-12-20T23:17:04.941Z,13.25
2022-12-20T23:19:51.457Z,14.55
2022-12-20T23:22:37.804Z,13.40
2022-12-20T23:25:25.470Z,15.02
2022-12-20T23:27:53.944Z,14.45
2022-12-20T23:30:24.761Z,14.70
2022-12-20T23:32:53.600Z,14.50
2022-12-20T23:35:21.503Z,13.02
2022-12-20T23:37:48.894Z,13.48
2022-12-20T23:40:17.421Z,13.95
2022-12-20T23:42:44.671Z,14.02
2022-12-20T23:45:11.960Z,14.02
2022-12-20T23:47:38.925Z,14.27
2022-12-20T23:50:06.720Z,14.55
2022-12-20T23:52:34.079Z,15.25
2022-12-20T23:55:01.002Z,15.00
2022-12-20T23:57:31.240Z,14.77
2022-12-20T23:59:58.627Z,16.17
